sensor_id;sensor_type;location;lat;lon;timestamp;pressure;altitude;pressure_sealevel;temperature
6454;BMP180;3260;52.438;13.502;2022-11-15T05:02:50;100581.00;;;6.60
6454;BMP180;3260;52.438;13.502;2022-11-15T05:05:36;100560.00;;;6.80
6454;BMP180;3260;52.438;13.502;2022-11-15T05:08:05;100581.00;;;6.60
6454;BMP180;3260;52.438;13.502;2022-11-15T05:10:33;100577.00;;;6.80
6454;BMP180;3260;52.438;13.502;2022-11-15T05:13:01;100578.00;;;6.80
6454;BMP180;3260;52.438;13.502;2022-11-15T05:15:29;100578.00;;;6.50
6454;BMP180;3260;52.438;13.502;2022-11-15T05:18:00;100588.00;;;6.60
6454;BMP180;3260;52.438;13.502;2022-11-15T05:20:28;100581.00;;;6.60
6454;BMP180;3260;52.438;13.502;2022-11-15T05:22:56;100581.00;;;6.80
6454;BMP180;3260;52.438;13.502;2022-11-15T05:25:25;100583.00;;;6.80
6454;BMP180;3260;52.438;13.502;2022-11-15T05:27:53;100586.00;;;6.70
6454;BMP180;3260;52.438;13.502;2022-11-15T05:30:22;100575.00;;;6.80
6454;BMP180;3260;52.438;13.502;2022-11-15T05:32:50;100570.00;;;6.70
6454;BMP180;3260;52.438;13.502;2022-11-15T05:35:30;100572.00;;;6.80
6454;BMP180;3260;52.438;13.502;2022-11-15T05:37:59;100572.00;;;6.60
6454;BMP180;3260;52.438;13.502;2022-11-15T05:40:30;100577.00;;;6.50
6454;BMP180;3260;52.438;13.502;2022-11-15T05:43:01;100575.00;;;6.60
6454;BMP180;3260;52.438;13.502;2022-11-15T05:45:32;100592.00;;;6.70
6454;BMP180;3260;52.438;13.502;2022-11-15T05:48:08;100594.00;;;6.50
6454;BMP180;3260;52.438;13.502;2022-11-15T05:50:43;100587.00;;;7.00
6454;BMP180;3260;52.438;13.502;2022-11-15T05:53:16;100596.00;;;7.00
6454;BMP180;3260;52.438;13.502;2022-11-15T05:55:47;100596.00;;;6.70
6454;BMP180;3260;52.438;13.502;2022-11-15T05:58:15;100592.00;;;7.10
6454;BMP180;3260;52.438;13.502;2022-11-15T06:00:54;100595.00;;;7.20
6454;BMP180;3260;52.438;13.502;2022-11-15T06:03:22;100595.00;;;7.00
6454;BMP180;3260;52.438;13.502;2022-11-15T06:05:51;100590.00;;;7.20
6454;BMP180;3260;52.438;13.502;2022-11-15T06:08:19;100588.00;;;6.70
6454;BMP180;3260;52.438;13.502;2022-11-15T06:10:47;100596.00;;;6.90
6454;BMP180;3260;52.438;13.502;2022-11-15T06:13:15;100601.00;;;6.70
6454;BMP180;3260;52.438;13.502;2022-11-15T06:15:43;100605.00;;;6.80
6454;BMP180;3260;52.438;13.502;2022-11-15T06:18:13;100599.00;;;7.10
6454;BMP180;3260;52.438;13.502;2022-11-15T06:20:41;100599.00;;;6.90
6454;BMP180;3260;52.438;13.502;2022-11-15T06:23:09;100610.00;;;7.00
6454;BMP180;3260;52.438;13.502;2022-11-15T06:25:38;100618.00;;;7.10
6454;BMP180;3260;52.438;13.502;2022-11-15T06:28:06;100602.00;;;7.10
6454;BMP180;3260;52.438;13.502;2022-11-15T06:30:34;100611.00;;;7.10
6454;BMP180;3260;52.438;13.502;2022-11-15T06:33:05;100613.00;;;7.30
6454;BMP180;3260;52.438;13.502;2022-11-15T06:35:35;100620.00;;;7.40
6454;BMP180;3260;52.438;13.502;2022-11-15T06:38:06;100616.00;;;7.40
6454;BMP180;3260;52.438;13.502;2022-11-15T06:40:35;100598.00;;;7.20
6454;BMP180;3260;52.438;13.502;2022-11-15T06:43:05;100610.00;;;7.30
6454;BMP180;3260;52.438;13.502;2022-11-15T06:45:34;100609.00;;;7.20
6454;BMP180;3260;52.438;13.502;2022-11-15T06:48:02;100613.00;;;7.40
6454;BMP180;3260;52.438;13.502;2022-11-15T06:50:30;100623.00;;;7.30
6454;BMP180;3260;52.438;13.502;2022-11-15T06:53:03;100611.00;;;7.40
6454;BMP180;3260;52.438;13.502;2022-11-15T06:55:31;100612.00;;;7.50
6454;BMP180;3260;52.438;13.502;2022-11-15T06:58:00;100598.00;;;7.40
6454;BMP180;3260;52.438;13.502;2022-11-15T07:00:28;100616.00;;;7.10
6454;BMP180;3260;52.438;13.502;2022-11-15T07:02:59;100622.00;;;6.90
6454;BMP180;3260;52.438;13.502;2022-11-15T07:05:28;100612.00;;;7.30
6454;BMP180;3260;52.438;13.502;2022-11-15T07:07:58;100618.00;;;7.20
6454;BMP180;3260;52.438;13.502;2022-11-15T07:10:28;100615.00;;;7.40
6454;BMP180;3260;52.438;13.502;2022-11-15T07:12:57;100611.00;;;7.40
6454;BMP180;3260;52.438;13.502;2022-11-15T07:15:26;100619.00;;;7.30
6454;BMP180;3260;52.438;13.502;2022-11-15T07:17:54;100631.00;;;7.80
6454;BMP180;3260;52.438;13.502;2022-11-15T07:20:22;100628.00;;;7.70
6454;BMP180;3260;52.438;13.502;2022-11-15T07:22:51;100630.00;;;8.00
6454;BMP180;3260;52.438;13.502;2022-11-15T07:25:19;100628.00;;;7.90
6454;BMP180;3260;52.438;13.502;2022-11-15T07:27:56;100625.00;;;8.20
6454;BMP180;3260;52.438;13.502;2022-11-15T07:30:25;100617.00;;;8.30
6454;BMP180;3260;52.438;13.502;2022-11-15T07:32:54;100632.00;;;8.60
6454;BMP180;3260;52.438;13.502;2022-11-15T07:35:23;100630.00;;;8.80
6454;BMP180;3260;52.438;13.502;2022-11-15T07:37:56;100634.00;;;8.90
6454;BMP180;3260;52.438;13.502;2022-11-15T07:40:26;100637.00;;;9.00
6454;BMP180;3260;52.438;13.502;2022-11-15T07:43:00;100633.00;;;9.00
6454;BMP180;3260;52.438;13.502;2022-11-15T07:45:29;100631.00;;;8.40
6454;BMP180;3260;52.438;13.502;2022-11-15T07:47:58;100637.00;;;8.70
6454;BMP180;3260;52.438;13.502;2022-11-15T07:50:27;100634.00;;;9.10
6454;BMP180;3260;52.438;13.502;2022-11-15T07:52:58;100625.00;;;9.30
6454;BMP180;3260;52.438;13.502;2022-11-15T07:55:28;100628.00;;;9.40
6454;BMP180;3260;52.438;13.502;2022-11-15T07:58:02;100620.00;;;9.50
6454;BMP180;3260;52.438;13.502;2022-11-15T08:00:31;100624.00;;;9.40
6454;BMP180;3260;52.438;13.502;2022-11-15T08:03:05;100626.00;;;9.60
6454;BMP180;3260;52.438;13.502;2022-11-15T08:05:35;100623.00;;;9.80
6454;BMP180;3260;52.438;13.502;2022-11-15T08:08:04;100621.00;;;9.70
6454;BMP180;3260;52.438;13.502;2022-11-15T08:10:34;100605.00;;;9.70
6454;BMP180;3260;52.438;13.502;2022-11-15T08:13:11;100617.00;;;9.60
6454;BMP180;3260;52.438;13.502;2022-11-15T08:15:39;100617.00;;;10.10
6454;BMP180;3260;52.438;13.502;2022-11-15T08:18:11;100606.00;;;10.20
6454;BMP180;3260;52.438;13.502;2022-11-15T08:20:41;100606.00;;;9.90
6454;BMP180;3260;52.438;13.502;2022-11-15T08:23:11;100607.00;;;9.70
6454;BMP180;3260;52.438;13.502;2022-11-15T08:25:39;100613.00;;;9.90
6454;BMP180;3260;52.438;13.502;2022-11-15T08:28:10;100614.00;;;10.40
6454;BMP180;3260;52.438;13.502;2022-11-15T08:30:41;100615.00;;;10.60
6454;BMP180;3260;52.438;13.502;2022-11-15T08:33:13;100624.00;;;11.10
6454;BMP180;3260;52.438;13.502;2022-11-15T08:35:44;100626.00;;;11.00
6454;BMP180;3260;52.438;13.502;2022-11-15T08:38:12;100607.00;;;11.40
6454;BMP180;3260;52.438;13.502;2022-11-15T08:40:40;100621.00;;;11.20
6454;BMP180;3260;52.438;13.502;2022-11-15T08:43:10;100613.00;;;11.50
6454;BMP180;3260;52.438;13.502;2022-11-15T08:45:39;100615.00;;;11.80
6454;BMP180;3260;52.438;13.502;2022-11-15T08:48:07;100630.00;;;12.00
6454;BMP180;3260;52.438;13.502;2022-11-15T08:50:35;100612.00;;;12.10
6454;BMP180;3260;52.438;13.502;2022-11-15T08:53:07;100618.00;;;12.50
6454;BMP180;3260;52.438;13.502;2022-11-15T08:55:37;100615.00;;;12.70
6454;BMP180;3260;52.438;13.502;2022-11-15T08:58:06;100606.00;;;12.40
6454;BMP180;3260;52.438;13.502;2022-11-15T09:00:36;100614.00;;;12.10
6454;BMP180;3260;52.438;13.502;2022-11-15T09:03:05;100615.00;;;11.90
6454;BMP180;3260;52.438;13.502;2022-11-15T09:05:37;100628.00;;;12.40
6454;BMP180;3260;52.438;13.502;2022-11-15T09:08:06;100625.00;;;12.10
6454;BMP180;3260;52.438;13.502;2022-11-15T09:10:54;100629.00;;;12.30
6454;BMP180;3260;52.438;13.502;2022-11-15T09:13:23;100618.00;;;12.20
6454;BMP180;3260;52.438;13.502;2022-11-15T09:15:52;100629.00;;;12.50
6454;BMP180;3260;52.438;13.502;2022-11-15T09:18:25;100624.00;;;13.00
6454;BMP180;3260;52.438;13.502;2022-11-15T09:20:56;100623.00;;;12.60
6454;BMP180;3260;52.438;13.502;2022-11-15T09:23:25;100618.00;;;13.00
6454;BMP180;3260;52.438;13.502;2022-11-15T09:25:59;100618.00;;;13.00
6454;BMP180;3260;52.438;13.502;2022-11-15T09:28:28;100619.00;;;13.30
6454;BMP180;3260;52.438;13.502;2022-11-15T09:31:02;100615.00;;;13.50
6454;BMP180;3260;52.438;13.502;2022-11-15T09:33:30;100625.00;;;13.50
6454;BMP180;3260;52.438;13.502;2022-11-15T09:36:02;100625.00;;;13.60
6454;BMP180;3260;52.438;13.502;2022-11-15T09:38:31;100610.00;;;14.30
6454;BMP180;3260;52.438;13.502;2022-11-15T09:41:34;100629.00;;;13.00
6454;BMP180;3260;52.438;13.502;2022-11-15T09:44:20;100623.00;;;13.50
6454;BMP180;3260;52.438;13.502;2022-11-15T09:47:05;100628.00;;;13.00
6454;BMP180;3260;52.438;13.502;2022-11-15T09:49:37;100631.00;;;13.10
6454;BMP180;3260;52.438;13.502;2022-11-15T09:52:10;100618.00;;;13.90
6454;BMP180;3260;52.438;13.502;2022-11-15T09:54:43;100613.00;;;14.00
6454;BMP180;3260;52.438;13.502;2022-11-15T09:57:31;100627.00;;;14.60
6454;BMP180;3260;52.438;13.502;2022-11-15T10:00:13;100618.00;;;15.00
6454;BMP180;3260;52.438;13.502;2022-11-15T10:03:12;100620.00;;;15.40
6454;BMP180;3260;52.438;13.502;2022-11-15T10:05:45;100630.00;;;15.50
6454;BMP180;3260;52.438;13.502;2022-11-15T10:08:45;100615.00;;;15.70
6454;BMP180;3260;52.438;13.502;2022-11-15T10:11:20;100617.00;;;15.40
6454;BMP180;3260;52.438;13.502;2022-11-15T10:14:11;100598.00;;;15.80
6454;BMP180;3260;52.438;13.502;2022-11-15T10:17:19;100596.00;;;15.90
6454;BMP180;3260;52.438;13.502;2022-11-15T10:20:08;100579.00;;;15.60
6454;BMP180;3260;52.438;13.502;2022-11-15T10:22:43;100586.00;;;16.40
6454;BMP180;3260;52.438;13.502;2022-11-15T10:25:20;100591.00;;;16.20
6454;BMP180;3260;52.438;13.502;2022-11-15T10:27:56;100587.00;;;16.20
6454;BMP180;3260;52.438;13.502;2022-11-15T10:30:33;100575.00;;;16.20
6454;BMP180;3260;52.438;13.502;2022-11-15T10:33:22;100571.00;;;16.40
6454;BMP180;3260;52.438;13.502;2022-11-15T10:36:20;100577.00;;;17.00
6454;BMP180;3260;52.438;13.502;2022-11-15T10:38:57;100572.00;;;16.70
6454;BMP180;3260;52.438;13.502;2022-11-15T10:41:38;100566.00;;;17.60
6454;BMP180;3260;52.438;13.502;2022-11-15T10:44:29;100567.00;;;17.90
6454;BMP180;3260;52.438;13.502;2022-11-15T10:47:33;100553.00;;;18.20
6454;BMP180;3260;52.438;13.502;2022-11-15T10:50:26;100563.00;;;18.70
6454;BMP180;3260;52.438;13.502;2022-11-15T10:52:56;100552.00;;;19.20
6454;BMP180;3260;52.438;13.502;2022-11-15T10:55:27;100552.00;;;18.60
6454;BMP180;3260;52.438;13.502;2022-11-15T10:58:03;100541.00;;;18.60
6454;BMP180;3260;52.438;13.502;2022-11-15T11:00:37;100553.00;;;19.40
6454;BMP180;3260;52.438;13.502;2022-11-15T11:03:28;100551.00;;;19.70
6454;BMP180;3260;52.438;13.502;2022-11-15T11:06:07;100542.00;;;19.60
6454;BMP180;3260;52.438;13.502;2022-11-15T11:08:38;100531.00;;;20.00
6454;BMP180;3260;52.438;13.502;2022-11-15T11:11:07;100539.00;;;19.40
6454;BMP180;3260;52.438;13.502;2022-11-15T11:13:38;100535.00;;;20.00
6454;BMP180;3260;52.438;13.502;2022-11-15T11:16:44;100536.00;;;19.60
6454;BMP180;3260;52.438;13.502;2022-11-15T11:19:54;100536.00;;;20.10
6454;BMP180;3260;52.438;13.502;2022-11-15T11:22:32;100537.00;;;20.10
6454;BMP180;3260;52.438;13.502;2022-11-15T11:25:25;100530.00;;;19.80
6454;BMP180;3260;52.438;13.502;2022-11-15T11:28:18;100523.00;;;19.50
6454;BMP180;3260;52.438;13.502;2022-11-15T11:31:20;100521.00;;;19.50
6454;BMP180;3260;52.438;13.502;2022-11-15T11:34:05;100522.00;;;19.40
6454;BMP180;3260;52.438;13.502;2022-11-15T11:36:50;100515.00;;;19.30
6454;BMP180;3260;52.438;13.502;2022-11-15T11:39:31;100512.00;;;19.70
6454;BMP180;3260;52.438;13.502;2022-11-15T11:42:17;100522.00;;;21.20
6454;BMP180;3260;52.438;13.502;2022-11-15T11:44:59;100515.00;;;21.80
6454;BMP180;3260;52.438;13.502;2022-11-15T11:47:37;100505.00;;;19.90
6454;BMP180;3260;52.438;13.502;2022-11-15T11:50:15;100508.00;;;20.00
6454;BMP180;3260;52.438;13.502;2022-11-15T11:52:57;100505.00;;;20.80
6454;BMP180;3260;52.438;13.502;2022-11-15T11:55:37;100510.00;;;21.50
6454;BMP180;3260;52.438;13.502;2022-11-15T11:58:15;100507.00;;;21.50
6454;BMP180;3260;52.438;13.502;2022-11-15T12:00:51;100510.00;;;22.50
6454;BMP180;3260;52.438;13.502;2022-11-15T12:03:28;100510.00;;;22.30
6454;BMP180;3260;52.438;13.502;2022-11-15T12:06:01;100509.00;;;22.50
6454;BMP180;3260;52.438;13.502;2022-11-15T12:08:40;100514.00;;;22.90
6454;BMP180;3260;52.438;13.502;2022-11-15T12:14:21;100509.00;;;25.30
6454;BMP180;3260;52.438;13.502;2022-11-15T12:16:50;100497.00;;;26.30
6454;BMP180;3260;52.438;13.502;2022-11-15T12:19:18;100495.00;;;25.70
6454;BMP180;3260;52.438;13.502;2022-11-15T12:21:51;100495.00;;;26.10
6454;BMP180;3260;52.438;13.502;2022-11-15T12:24:28;100490.00;;;26.40
6454;BMP180;3260;52.438;13.502;2022-11-15T12:27:04;100488.00;;;27.60
6454;BMP180;3260;52.438;13.502;2022-11-15T12:29:39;100482.00;;;25.00
6454;BMP180;3260;52.438;13.502;2022-11-15T12:32:30;100491.00;;;27.90
6454;BMP180;3260;52.438;13.502;2022-11-15T12:35:02;100491.00;;;28.80
6454;BMP180;3260;52.438;13.502;2022-11-15T12:37:53;100488.00;;;28.50
6454;BMP180;3260;52.438;13.502;2022-11-15T12:40:36;100480.00;;;29.50
6454;BMP180;3260;52.438;13.502;2022-11-15T12:43:39;100482.00;;;30.60
6454;BMP180;3260;52.438;13.502;2022-11-15T12:46:20;100480.00;;;31.00
6454;BMP180;3260;52.438;13.502;2022-11-15T12:48:57;100473.00;;;30.90
6454;BMP180;3260;52.438;13.502;2022-11-15T12:52:03;100485.00;;;31.50
6454;BMP180;3260;52.438;13.502;2022-11-15T12:55:01;100481.00;;;31.40
6454;BMP180;3260;52.438;13.502;2022-11-15T12:57:39;100482.00;;;31.70
6454;BMP180;3260;52.438;13.502;2022-11-15T13:00:43;100474.00;;;32.70
6454;BMP180;3260;52.438;13.502;2022-11-15T13:03:27;100466.00;;;32.10
6454;BMP180;3260;52.438;13.502;2022-11-15T13:06:36;100467.00;;;32.00
6454;BMP180;3260;52.438;13.502;2022-11-15T13:09:51;100469.00;;;32.30
6454;BMP180;3260;52.438;13.502;2022-11-15T13:12:54;100468.00;;;31.60
6454;BMP180;3260;52.438;13.502;2022-11-15T13:15:52;100470.00;;;32.30
6454;BMP180;3260;52.438;13.502;2022-11-15T13:18:39;100457.00;;;31.50
6454;BMP180;3260;52.438;13.502;2022-11-15T13:21:23;100472.00;;;31.50
6454;BMP180;3260;52.438;13.502;2022-11-15T13:24:13;100471.00;;;33.10
6454;BMP180;3260;52.438;13.502;2022-11-15T13:26:44;100473.00;;;32.10
6454;BMP180;3260;52.438;13.502;2022-11-15T13:29:19;100470.00;;;33.70
6454;BMP180;3260;52.438;13.502;2022-11-15T13:31:48;100469.00;;;33.30
6454;BMP180;3260;52.438;13.502;2022-11-15T13:34:28;100457.00;;;32.70
6454;BMP180;3260;52.438;13.502;2022-11-15T13:37:31;100455.00;;;32.60
6454;BMP180;3260;52.438;13.502;2022-11-15T13:40:35;100455.00;;;33.00
6454;BMP180;3260;52.438;13.502;2022-11-15T13:43:28;100455.00;;;32.50
6454;BMP180;3260;52.438;13.502;2022-11-15T13:46:11;100457.00;;;32.60
6454;BMP180;3260;52.438;13.502;2022-11-15T13:48:41;100459.00;;;32.30
6454;BMP180;3260;52.438;13.502;2022-11-15T13:51:19;100463.00;;;31.40
6454;BMP180;3260;52.438;13.502;2022-11-15T13:53:53;100461.00;;;32.00
6454;BMP180;3260;52.438;13.502;2022-11-15T13:56:23;100458.00;;;31.30
6454;BMP180;3260;52.438;13.502;2022-11-15T13:58:53;100456.00;;;31.30
6454;BMP180;3260;52.438;13.502;2022-11-15T14:01:22;100460.00;;;30.80
6454;BMP180;3260;52.438;13.502;2022-11-15T14:03:58;100452.00;;;30.60
6454;BMP180;3260;52.438;13.502;2022-11-15T14:06:30;100450.00;;;30.10
6454;BMP180;3260;52.438;13.502;2022-11-15T14:09:24;100451.00;;;30.30
6454;BMP180;3260;52.438;13.502;2022-11-15T14:11:57;100456.00;;;30.10
6454;BMP180;3260;52.438;13.502;2022-11-15T14:14:28;100432.00;;;30.10
6454;BMP180;3260;52.438;13.502;2022-11-15T14:16:59;100459.00;;;29.70
6454;BMP180;3260;52.438;13.502;2022-11-15T14:19:39;100466.00;;;29.60
6454;BMP180;3260;52.438;13.502;2022-11-15T14:22:16;100438.00;;;28.80
6454;BMP180;3260;52.438;13.502;2022-11-15T14:24:46;100455.00;;;28.00
6454;BMP180;3260;52.438;13.502;2022-11-15T14:27:24;100450.00;;;27.90
6454;BMP180;3260;52.438;13.502;2022-11-15T14:29:54;100452.00;;;27.10
6454;BMP180;3260;52.438;13.502;2022-11-15T14:32:25;100452.00;;;25.30
6454;BMP180;3260;52.438;13.502;2022-11-15T14:34:56;100452.00;;;24.60
6454;BMP180;3260;52.438;13.502;2022-11-15T14:37:29;100443.00;;;24.70
6454;BMP180;3260;52.438;13.502;2022-11-15T14:39:58;100444.00;;;23.90
6454;BMP180;3260;52.438;13.502;2022-11-15T14:42:26;100441.00;;;23.10
6454;BMP180;3260;52.438;13.502;2022-11-15T14:44:54;100440.00;;;22.40
6454;BMP180;3260;52.438;13.502;2022-11-15T14:47:23;100445.00;;;21.70
6454;BMP180;3260;52.438;13.502;2022-11-15T14:49:51;100432.00;;;21.00
6454;BMP180;3260;52.438;13.502;2022-11-15T14:52:29;100429.00;;;20.30
6454;BMP180;3260;52.438;13.502;2022-11-15T14:55:03;100424.00;;;19.70
6454;BMP180;3260;52.438;13.502;2022-11-15T14:57:32;100411.00;;;19.10
6454;BMP180;3260;52.438;13.502;2022-11-15T15:00:00;100408.00;;;18.70
6454;BMP180;3260;52.438;13.502;2022-11-15T15:02:30;100398.00;;;18.30
6454;BMP180;3260;52.438;13.502;2022-11-15T15:04:58;100398.00;;;17.80
6454;BMP180;3260;52.438;13.502;2022-11-15T15:07:31;100404.00;;;17.50
6454;BMP180;3260;52.438;13.502;2022-11-15T15:09:59;100398.00;;;17.20
6454;BMP180;3260;52.438;13.502;2022-11-15T15:12:48;100392.00;;;16.90
6454;BMP180;3260;52.438;13.502;2022-11-15T15:15:24;100398.00;;;16.30
6454;BMP180;3260;52.438;13.502;2022-11-15T15:17:52;100393.00;;;16.20
6454;BMP180;3260;52.438;13.502;2022-11-15T15:20:21;100400.00;;;16.00
6454;BMP180;3260;52.438;13.502;2022-11-15T15:22:50;100388.00;;;15.80
6454;BMP180;3260;52.438;13.502;2022-11-15T15:25:27;100381.00;;;15.50
6454;BMP180;3260;52.438;13.502;2022-11-15T15:27:56;100384.00;;;15.20
6454;BMP180;3260;52.438;13.502;2022-11-15T15:30:26;100386.00;;;15.10
6454;BMP180;3260;52.438;13.502;2022-11-15T15:32:55;100377.00;;;15.00
6454;BMP180;3260;52.438;13.502;2022-11-15T15:35:29;100385.00;;;14.80
6454;BMP180;3260;52.438;13.502;2022-11-15T15:37:59;100375.00;;;14.60
6454;BMP180;3260;52.438;13.502;2022-11-15T15:40:29;100379.00;;;14.40
6454;BMP180;3260;52.438;13.502;2022-11-15T15:42:58;100377.00;;;14.30
6454;BMP180;3260;52.438;13.502;2022-11-15T15:45:27;100360.00;;;14.20
6454;BMP180;3260;52.438;13.502;2022-11-15T15:47:56;100368.00;;;14.10
6454;BMP180;3260;52.438;13.502;2022-11-15T15:50:27;100365.00;;;13.90
6454;BMP180;3260;52.438;13.502;2022-11-15T15:52:59;100360.00;;;13.90
6454;BMP180;3260;52.438;13.502;2022-11-15T15:55:28;100369.00;;;13.70
6454;BMP180;3260;52.438;13.502;2022-11-15T15:57:57;100355.00;;;13.60
6454;BMP180;3260;52.438;13.502;2022-11-15T16:00:26;100363.00;;;13.30
6454;BMP180;3260;52.438;13.502;2022-11-15T16:02:54;100351.00;;;13.30
6454;BMP180;3260;52.438;13.502;2022-11-15T16:05:23;100359.00;;;13.20
6454;BMP180;3260;52.438;13.502;2022-11-15T16:07:51;100338.00;;;13.20
6454;BMP180;3260;52.438;13.502;2022-11-15T16:10:24;100350.00;;;13.10
6454;BMP180;3260;52.438;13.502;2022-11-15T16:12:54;100353.00;;;13.00
6454;BMP180;3260;52.438;13.502;2022-11-15T16:15:25;100350.00;;;13.00
6454;BMP180;3260;52.438;13.502;2022-11-15T16:17:56;100333.00;;;12.90
6454;BMP180;3260;52.438;13.502;2022-11-15T16:20:35;100354.00;;;12.70
6454;BMP180;3260;52.438;13.502;2022-11-15T16:23:07;100346.00;;;12.50
6454;BMP180;3260;52.438;13.502;2022-11-15T16:25:45;100349.00;;;12.50
6454;BMP180;3260;52.438;13.502;2022-11-15T16:28:21;100340.00;;;12.60
6454;BMP180;3260;52.438;13.502;2022-11-15T16:31:01;100337.00;;;12.40
6454;BMP180;3260;52.438;13.502;2022-11-15T16:33:29;100342.00;;;12.40
6454;BMP180;3260;52.438;13.502;2022-11-15T16:35:59;100346.00;;;12.30
6454;BMP180;3260;52.438;13.502;2022-11-15T16:38:27;100334.00;;;12.20
6454;BMP180;3260;52.438;13.502;2022-11-15T16:40:56;100337.00;;;12.00
6454;BMP180;3260;52.438;13.502;2022-11-15T16:43:25;100335.00;;;11.70
6454;BMP180;3260;52.438;13.502;2022-11-15T16:45:54;100341.00;;;11.80
6454;BMP180;3260;52.438;13.502;2022-11-15T16:48:24;100324.00;;;11.90
6454;BMP180;3260;52.438;13.502;2022-11-15T16:50:55;100334.00;;;11.80
6454;BMP180;3260;52.438;13.502;2022-11-15T16:53:25;100330.00;;;11.70
6454;BMP180;3260;52.438;13.502;2022-11-15T16:55:56;100332.00;;;11.70
6454;BMP180;3260;52.438;13.502;2022-11-15T16:58:24;100325.00;;;11.50
6454;BMP180;3260;52.438;13.502;2022-11-15T17:00:55;100332.00;;;11.40
6454;BMP180;3260;52.438;13.502;2022-11-15T17:03:24;100313.00;;;11.40
6454;BMP180;3260;52.438;13.502;2022-11-15T17:05:56;100326.00;;;11.50
6454;BMP180;3260;52.438;13.502;2022-11-15T17:08:25;100321.00;;;11.30
6454;BMP180;3260;52.438;13.502;2022-11-15T17:10:55;100316.00;;;11.30
6454;BMP180;3260;52.438;13.502;2022-11-15T17:13:24;100322.00;;;10.80
6454;BMP180;3260;52.438;13.502;2022-11-15T17:16:04;100318.00;;;10.80
6454;BMP180;3260;52.438;13.502;2022-11-15T17:18:33;100299.00;;;11.00
6454;BMP180;3260;52.438;13.502;2022-11-15T17:21:06;100313.00;;;10.80
6454;BMP180;3260;52.438;13.502;2022-11-15T17:23:35;100294.00;;;10.90
6454;BMP180;3260;52.438;13.502;2022-11-15T17:26:06;100288.00;;;11.00
6454;BMP180;3260;52.438;13.502;2022-11-15T17:28:55;100304.00;;;10.70
6454;BMP180;3260;52.438;13.502;2022-11-15T17:31:24;100299.00;;;10.60
6454;BMP180;3260;52.438;13.502;2022-11-15T17:33:53;100302.00;;;10.60
6454;BMP180;3260;52.438;13.502;2022-11-15T17:36:21;100295.00;;;10.50
6454;BMP180;3260;52.438;13.502;2022-11-15T17:38:49;100303.00;;;10.50
6454;BMP180;3260;52.438;13.502;2022-11-15T17:41:27;100296.00;;;10.50
6454;BMP180;3260;52.438;13.502;2022-11-15T17:43:56;100303.00;;;10.40
6454;BMP180;3260;52.438;13.502;2022-11-15T17:46:27;100294.00;;;10.50
6454;BMP180;3260;52.438;13.502;2022-11-15T17:48:56;100297.00;;;10.50
6454;BMP180;3260;52.438;13.502;2022-11-15T17:51:25;100298.00;;;10.40
6454;BMP180;3260;52.438;13.502;2022-11-15T17:53:55;100296.00;;;10.30
6454;BMP180;3260;52.438;13.502;2022-11-15T17:56:26;100279.00;;;10.20
6454;BMP180;3260;52.438;13.502;2022-11-15T17:58:58;100304.00;;;10.30
6454;BMP180;3260;52.438;13.502;2022-11-15T18:01:28;100291.00;;;10.20
6454;BMP180;3260;52.438;13.502;2022-11-15T18:03:58;100265.00;;;10.40
6454;BMP180;3260;52.438;13.502;2022-11-15T18:06:29;100291.00;;;10.20
6454;BMP180;3260;52.438;13.502;2022-11-15T18:08:59;100277.00;;;10.10
6454;BMP180;3260;52.438;13.502;2022-11-15T18:11:31;100291.00;;;10.10
6454;BMP180;3260;52.438;13.502;2022-11-15T18:14:01;100259.00;;;10.10
6454;BMP180;3260;52.438;13.502;2022-11-15T18:16:33;100284.00;;;10.20
6454;BMP180;3260;52.438;13.502;2022-11-15T18:19:03;100282.00;;;10.00
6454;BMP180;3260;52.438;13.502;2022-11-15T18:21:34;100276.00;;;10.00
6454;BMP180;3260;52.438;13.502;2022-11-15T18:24:22;100276.00;;;10.10
6454;BMP180;3260;52.438;13.502;2022-11-15T18:26:52;100263.00;;;10.00
6454;BMP180;3260;52.438;13.502;2022-11-15T18:29:21;100266.00;;;10.00
6454;BMP180;3260;52.438;13.502;2022-11-15T18:31:52;100266.00;;;9.80
6454;BMP180;3260;52.438;13.502;2022-11-15T18:34:23;100262.00;;;9.70
6454;BMP180;3260;52.438;13.502;2022-11-15T18:36:52;100261.00;;;9.80
6454;BMP180;3260;52.438;13.502;2022-11-15T18:39:20;100265.00;;;9.70
6454;BMP180;3260;52.438;13.502;2022-11-15T18:41:48;100269.00;;;9.60
6454;BMP180;3260;52.438;13.502;2022-11-15T18:44:19;100263.00;;;9.70
6454;BMP180;3260;52.438;13.502;2022-11-15T18:46:47;100262.00;;;9.50
6454;BMP180;3260;52.438;13.502;2022-11-15T18:49:17;100260.00;;;9.50
6454;BMP180;3260;52.438;13.502;2022-11-15T18:51:47;100270.00;;;9.50
6454;BMP180;3260;52.438;13.502;2022-11-15T18:54:16;100266.00;;;9.10
6454;BMP180;3260;52.438;13.502;2022-11-15T18:56:44;100269.00;;;9.30
6454;BMP180;3260;52.438;13.502;2022-11-15T18:59:14;100272.00;;;9.50
6454;BMP180;3260;52.438;13.502;2022-11-15T19:01:44;100265.00;;;9.50
6454;BMP180;3260;52.438;13.502;2022-11-15T19:04:17;100260.00;;;9.50
6454;BMP180;3260;52.438;13.502;2022-11-15T19:06:48;100259.00;;;9.20
6454;BMP180;3260;52.438;13.502;2022-11-15T19:09:18;100254.00;;;9.10
6454;BMP180;3260;52.438;13.502;2022-11-15T19:11:48;100255.00;;;9.20
6454;BMP180;3260;52.438;13.502;2022-11-15T19:14:18;100254.00;;;9.10
6454;BMP180;3260;52.438;13.502;2022-11-15T19:16:51;100256.00;;;9.10
6454;BMP180;3260;52.438;13.502;2022-11-15T19:19:23;100250.00;;;9.40
6454;BMP180;3260;52.438;13.502;2022-11-15T19:21:51;100257.00;;;9.30
6454;BMP180;3260;52.438;13.502;2022-11-15T19:24:20;100254.00;;;9.60
6454;BMP180;3260;52.438;13.502;2022-11-15T19:26:48;100252.00;;;9.80
6454;BMP180;3260;52.438;13.502;2022-11-15T19:29:16;100261.00;;;9.60
6454;BMP180;3260;52.438;13.502;2022-11-15T19:31:45;100254.00;;;9.80
6454;BMP180;3260;52.438;13.502;2022-11-15T19:34:16;100258.00;;;9.90
6454;BMP180;3260;52.438;13.502;2022-11-15T19:36:45;100254.00;;;9.70
6454;BMP180;3260;52.438;13.502;2022-11-15T19:39:14;100240.00;;;9.90
6454;BMP180;3260;52.438;13.502;2022-11-15T19:41:44;100254.00;;;10.10
6454;BMP180;3260;52.438;13.502;2022-11-15T19:44:14;100245.00;;;10.20
6454;BMP180;3260;52.438;13.502;2022-11-15T19:46:42;100255.00;;;10.10
6454;BMP180;3260;52.438;13.502;2022-11-15T19:49:11;100244.00;;;10.20
6454;BMP180;3260;52.438;13.502;2022-11-15T19:51:41;100242.00;;;10.20
6454;BMP180;3260;52.438;13.502;2022-11-15T19:54:11;100252.00;;;10.30
6454;BMP180;3260;52.438;13.502;2022-11-15T19:56:39;100249.00;;;10.30